Pagina principale
METAR-TAF:

METAR-TAF

Aeroporti :

Aeroporto di Pantelleria

Pantelleria, Italia

latitudine: 36-49N, longitudine: 011-58E, altezza: 191 m

Osservazione

Il bollettino è stato emesso 26 minuti fa, alle 11:50 UTC
Vento 11 kt da nord/nord-est
Temperature 9°C
Umidità 93%
Pressione 1023 hPa
Visibilità: 4000 m
Nuvoloso ad un'altezza di 400 ft
Cielo coperto ad un'altezza di 800 ft
pioggia debole

METAR: LICG 091150Z 03011KT 4000 -RA BKN004 OVC008 09/08 Q1023

Ora: 13:16 (12:16 UTC)

Previsione

Il bollettino è stato emesso 1 ora e 16 minuti fa, alle 11:00 UTC
Previsione valida dal 09 alle 12 UTC al 09 alle 21 UTC
Vento 18 kt da nord-est con raffiche fino a 28 kt
Visibilità: 5000 m
Nuvoloso ad un'altezza di 1500 ft
pioggia

TAF: LICG 091100Z 0912/0921 05018G28KT 5000 RA BKN015

Osservazioni e previsioni meteorologiche di più di 4000 aeroporti (messaggi METAR e TAF).

Le stazioni disponibili sono rappresentate dai dischi gialli e rossi sulla carta.

Puntare il mouse per vedere il nome della stazione.

Clicca sopra per visualizzare le osservazioni e previsioni meteorologiche.

Per cambiare la mappa : fare clic sui pulsanti verdi con una croce nera per ingrandire, il pulsante verde con un trattino per diminuire, o sulla freccia verde per le mappe adiacenti.


METAR-TAF: